createdAt,value
2023-01-11T12:49:40.487Z,100500.88
2023-01-11T12:52:22.898Z,100522.72
2023-01-11T12:55:27.093Z,100505.19
2023-01-11T12:58:08.166Z,100518.59
2023-01-11T13:01:00.057Z,100514.53
2023-01-11T13:03:34.897Z,100511.34
2023-01-11T13:06:07.808Z,100506.63
2023-01-11T13:08:48.277Z,100501.22
2023-01-11T13:11:53.718Z,100507.88
2023-01-11T13:14:48.253Z,100505.47
2023-01-11T13:17:33.690Z,100516.94
2023-01-11T13:20:03.562Z,100518.06
2023-01-11T13:22:33.753Z,100521.91
2023-01-11T13:25:02.157Z,100518.91
2023-01-11T13:27:31.786Z,100526.94
2023-01-11T13:30:00.967Z,100547.53
2023-01-11T13:32:34.499Z,100539.13
2023-01-11T13:35:05.660Z,100549.94
2023-01-11T13:37:39.681Z,100541.63
2023-01-11T13:40:27.813Z,100540.41
2023-01-11T13:43:11.860Z,100560.75
2023-01-11T13:45:50.797Z,100556.13
2023-01-11T13:48:27.019Z,100551.66
2023-01-11T13:51:12.548Z,100541.97
2023-01-11T13:53:49.031Z,100531.22
2023-01-11T13:56:24.011Z,100550.06
2023-01-11T13:59:00.225Z,100549.22
2023-01-11T14:02:02.407Z,100555.63
2023-01-11T14:04:41.346Z,100549.00
2023-01-11T14:07:20.692Z,100556.13
2023-01-11T14:10:09.093Z,100557.88
2023-01-11T14:12:54.711Z,100558.88
2023-01-11T14:15:31.631Z,100536.25
2023-01-11T14:18:09.291Z,100562.97
2023-01-11T14:21:02.323Z,100560.50
2023-01-11T14:23:50.682Z,100567.22
2023-01-11T14:26:36.865Z,100575.75
2023-01-11T14:29:06.504Z,100576.59
2023-01-11T14:32:02.467Z,100563.44
2023-01-11T14:34:50.951Z,100570.19
2023-01-11T14:37:31.526Z,100572.75
2023-01-11T14:40:19.973Z,100562.44
2023-01-11T14:43:06.582Z,100571.94
2023-01-11T14:45:54.391Z,100568.59
2023-01-11T14:48:42.777Z,100569.63
2023-01-11T14:51:33.823Z,100567.88
2023-01-11T14:54:30.053Z,100562.63
2023-01-11T14:56:58.352Z,100577.41
2023-01-11T14:59:31.807Z,100570.34
2023-01-11T15:02:04.836Z,100578.91
2023-01-11T15:04:34.654Z,100580.78
2023-01-11T15:07:02.018Z,100572.03
2023-01-11T15:09:46.874Z,100572.88
2023-01-11T15:12:15.348Z,100583.41
2023-01-11T15:14:52.324Z,100571.06
2023-01-11T15:17:39.408Z,100590.25
2023-01-11T15:20:11.577Z,100585.03
2023-01-11T15:22:38.530Z,100579.03
2023-01-11T15:25:21.448Z,100574.72
2023-01-11T15:27:48.958Z,100571.78
2023-01-11T15:30:31.419Z,100584.47
2023-01-11T15:33:20.309Z,100577.00
2023-01-11T15:35:55.976Z,100585.28
2023-01-11T15:38:31.768Z,100581.09
2023-01-11T15:41:21.997Z,100567.41
2023-01-11T15:43:57.705Z,100559.78
2023-01-11T15:46:54.869Z,100553.19
2023-01-11T15:50:00.041Z,100560.47
2023-01-11T15:52:41.742Z,100561.31
2023-01-11T15:55:32.787Z,100544.50
2023-01-11T15:58:08.537Z,100545.34
2023-01-11T16:00:46.993Z,100545.50
2023-01-11T16:03:35.470Z,100551.44
2023-01-11T16:06:25.969Z,100541.25
2023-01-11T16:08:57.437Z,100560.19
2023-01-11T16:12:08.457Z,100558.56
2023-01-11T16:15:05.998Z,100551.03
2023-01-11T16:17:33.280Z,100545.84
2023-01-11T16:20:21.785Z,100550.16
2023-01-11T16:23:03.124Z,100562.88
2023-01-11T16:25:41.329Z,100566.78
2023-01-11T16:28:08.546Z,100571.72
2023-01-11T16:30:35.231Z,100568.31
2023-01-11T16:33:22.313Z,100557.88
2023-01-11T16:35:49.461Z,100546.28
2023-01-11T16:38:18.843Z,100569.25
2023-01-11T16:40:50.514Z,100577.31
2023-01-11T16:43:27.032Z,100577.72
2023-01-11T16:45:54.441Z,100583.66
2023-01-11T16:48:25.760Z,100572.28
2023-01-11T16:51:19.468Z,100584.38
2023-01-11T16:53:55.056Z,100571.63
2023-01-11T16:56:23.652Z,100579.66
2023-01-11T16:59:07.725Z,100562.03
2023-01-11T17:02:04.211Z,100569.81
2023-01-11T17:04:31.041Z,100566.47
2023-01-11T17:07:27.753Z,100568.81
2023-01-11T17:10:28.127Z,100566.84
2023-01-11T17:13:33.757Z,100568.88
2023-01-11T17:16:06.916Z,100540.41
2023-01-11T17:18:33.775Z,100566.28
2023-01-11T17:21:00.664Z,100554.06
2023-01-11T17:23:27.350Z,100551.72
2023-01-11T17:25:56.669Z,100562.97
2023-01-11T17:28:24.144Z,100557.09
2023-01-11T17:30:51.575Z,100554.41
2023-01-11T17:33:32.144Z,100549.31
2023-01-11T17:35:59.795Z,100548.53
2023-01-11T17:38:26.914Z,100542.69
2023-01-11T17:40:57.533Z,100553.19
2023-01-11T17:43:44.719Z,100560.63
2023-01-11T17:46:24.791Z,100545.00
2023-01-11T17:48:54.154Z,100548.25
2023-01-11T17:51:41.273Z,100542.03
2023-01-11T17:54:22.273Z,100554.81
2023-01-11T17:56:56.986Z,100555.81
2023-01-11T17:59:26.109Z,100548.97
2023-01-11T18:01:54.552Z,100540.16
2023-01-11T18:04:22.607Z,100544.38
2023-01-11T18:07:11.489Z,100535.81
2023-01-11T18:09:44.885Z,100526.91
2023-01-11T18:12:18.100Z,100514.91
2023-01-11T18:14:55.933Z,100513.91
2023-01-11T18:17:30.811Z,100509.63
2023-01-11T18:19:57.943Z,100502.81
2023-01-11T18:22:29.961Z,100496.91
2023-01-11T18:25:17.305Z,100502.41
2023-01-11T18:27:46.703Z,100488.88
2023-01-11T18:30:31.941Z,100490.69
2023-01-11T18:33:00.741Z,100486.81
2023-01-11T18:35:27.838Z,100492.81
2023-01-11T18:37:54.619Z,100487.47
2023-01-11T18:40:21.709Z,100491.47
2023-01-11T18:42:53.369Z,100494.84
2023-01-11T18:45:21.074Z,100495.22
2023-01-11T18:47:47.746Z,100487.31
2023-01-11T18:50:14.969Z,100483.66
2023-01-11T18:52:41.769Z,100461.03
2023-01-11T18:55:11.394Z,100481.38
2023-01-11T18:57:38.082Z,100476.09
2023-01-11T19:00:05.383Z,100479.22
2023-01-11T19:05:18.853Z,100473.44
2023-01-11T19:07:45.560Z,100467.09
2023-01-11T19:10:17.117Z,100466.59
2023-01-11T20:58:02.609Z,100391.94
2023-01-11T21:00:29.852Z,100374.47
2023-01-11T21:02:56.547Z,100377.50
2023-01-11T21:17:59.528Z,100376.97
2023-01-11T21:20:26.254Z,100384.44
2023-01-11T21:22:52.885Z,100392.00
2023-01-11T21:25:19.517Z,100397.84
2023-01-11T21:27:46.201Z,100390.38
2023-01-11T21:30:13.053Z,100397.88
2023-01-11T21:32:39.728Z,100368.59
2023-01-11T21:35:06.549Z,100399.41
2023-01-11T21:37:33.317Z,100405.91
2023-01-11T21:39:59.931Z,100411.13
2023-01-11T21:42:26.558Z,100414.06
2023-01-11T21:44:53.360Z,100408.75
2023-01-11T21:47:20.011Z,100407.28
2023-01-11T21:49:46.743Z,100403.69
2023-01-11T21:52:13.455Z,100399.47
2023-01-11T21:54:40.046Z,100408.25
2023-01-11T21:57:06.709Z,100396.50
2023-01-11T21:59:35.849Z,100403.81
2023-01-11T22:02:02.535Z,100393.59
2023-01-11T22:04:29.122Z,100406.09
2023-01-11T22:06:56.576Z,100397.25
2023-01-11T22:09:25.935Z,100399.56
2023-01-11T22:11:52.779Z,100394.34
2023-01-11T22:14:19.513Z,100398.44
2023-01-11T22:16:46.275Z,100405.38
2023-01-11T22:19:13.370Z,100380.78
2023-01-11T22:21:40.152Z,100397.97
2023-01-11T22:24:09.586Z,100390.06
2023-01-11T22:26:39.026Z,100410.38
2023-01-11T22:29:15.135Z,100400.50
2023-01-11T22:31:47.375Z,100402.59
2023-01-11T22:34:14.462Z,100392.53
2023-01-11T22:36:42.458Z,100394.78
2023-01-11T22:39:09.424Z,100403.91
2023-01-11T22:41:36.082Z,100402.19
2023-01-11T22:44:03.090Z,100400.94
2023-01-11T22:46:29.998Z,100398.69
2023-01-11T22:48:56.668Z,100388.06
2023-01-11T22:51:25.112Z,100392.25
2023-01-11T22:53:53.495Z,100370.50
2023-01-11T22:56:24.906Z,100368.25
2023-01-11T22:58:53.133Z,100360.06
2023-01-11T23:01:21.796Z,100369.59
2023-01-11T23:03:48.876Z,100353.16
2023-01-11T23:06:20.803Z,100360.69
2023-01-11T23:08:47.556Z,100357.19
2023-01-11T23:11:39.927Z,100358.19
2023-01-11T23:14:15.371Z,100365.34
2023-01-11T23:16:42.694Z,100365.78
2023-01-11T23:19:11.335Z,100356.06
2023-01-11T23:21:41.962Z,100362.31
2023-01-11T23:24:09.402Z,100350.97
2023-01-11T23:26:36.299Z,100354.59
2023-01-11T23:29:03.794Z,100349.84
2023-01-11T23:31:30.796Z,100355.63
2023-01-11T23:33:59.530Z,100357.00
2023-01-11T23:36:34.750Z,100351.13
2023-01-11T23:39:01.627Z,100343.44
2023-01-11T23:41:46.995Z,100351.91
2023-01-11T23:44:15.118Z,100362.94
2023-01-11T23:47:00.926Z,100346.06
2023-01-11T23:49:27.745Z,100357.72
2023-01-11T23:51:55.582Z,100359.44
2023-01-11T23:54:22.779Z,100340.63
2023-01-11T23:56:49.505Z,100356.38
2023-01-11T23:59:16.316Z,100354.84
